sensor_id;sensor_type;location;lat;lon;timestamp;P1;durP1;ratioP1;P2;durP2;ratioP2
47625;SDS011;33342;45.574;9.252;2023-05-07T00:02:17;24.42;;;21.55;;
47625;SDS011;33342;45.574;9.252;2023-05-07T00:04:44;25.55;;;22.90;;
47625;SDS011;33342;45.574;9.252;2023-05-07T00:07:11;24.88;;;22.27;;
47625;SDS011;33342;45.574;9.252;2023-05-07T00:09:38;25.52;;;22.83;;
47625;SDS011;33342;45.574;9.252;2023-05-07T00:12:07;25.25;;;21.60;;
47625;SDS011;33342;45.574;9.252;2023-05-07T00:14:34;26.15;;;22.17;;
47625;SDS011;33342;45.574;9.252;2023-05-07T00:17:01;23.88;;;21.30;;
47625;SDS011;33342;45.574;9.252;2023-05-07T00:19:28;25.83;;;21.95;;
47625;SDS011;33342;45.574;9.252;2023-05-07T00:21:55;23.25;;;20.88;;
47625;SDS011;33342;45.574;9.252;2023-05-07T00:24:22;22.40;;;20.05;;
47625;SDS011;33342;45.574;9.252;2023-05-07T00:26:49;24.27;;;21.60;;
47625;SDS011;33342;45.574;9.252;2023-05-07T00:29:16;23.40;;;20.77;;
47625;SDS011;33342;45.574;9.252;2023-05-07T00:31:43;24.38;;;21.83;;
47625;SDS011;33342;45.574;9.252;2023-05-07T00:34:11;22.90;;;20.35;;
47625;SDS011;33342;45.574;9.252;2023-05-07T00:36:38;23.25;;;20.20;;
47625;SDS011;33342;45.574;9.252;2023-05-07T00:39:04;19.00;;;16.05;;
47625;SDS011;33342;45.574;9.252;2023-05-07T00:41:32;19.65;;;12.93;;
47625;SDS011;33342;45.574;9.252;2023-05-07T00:43:59;13.00;;;9.40;;
47625;SDS011;33342;45.574;9.252;2023-05-07T00:46:27;10.52;;;8.05;;
47625;SDS011;33342;45.574;9.252;2023-05-07T00:48:54;11.48;;;7.72;;
47625;SDS011;33342;45.574;9.252;2023-05-07T00:51:22;12.02;;;6.80;;
47625;SDS011;33342;45.574;9.252;2023-05-07T00:53:51;9.25;;;5.78;;
47625;SDS011;33342;45.574;9.252;2023-05-07T00:56:19;9.07;;;5.30;;
47625;SDS011;33342;45.574;9.252;2023-05-07T00:58:49;8.15;;;4.82;;
47625;SDS011;33342;45.574;9.252;2023-05-07T01:01:17;7.32;;;4.70;;
47625;SDS011;33342;45.574;9.252;2023-05-07T01:03:44;7.95;;;4.82;;
47625;SDS011;33342;45.574;9.252;2023-05-07T01:06:11;6.85;;;4.53;;
47625;SDS011;33342;45.574;9.252;2023-05-07T01:08:43;5.68;;;4.20;;
47625;SDS011;33342;45.574;9.252;2023-05-07T01:11:11;6.10;;;3.92;;
47625;SDS011;33342;45.574;9.252;2023-05-07T01:13:39;6.45;;;3.40;;
47625;SDS011;33342;45.574;9.252;2023-05-07T01:16:06;7.07;;;3.55;;
47625;SDS011;33342;45.574;9.252;2023-05-07T01:18:35;8.70;;;3.17;;
47625;SDS011;33342;45.574;9.252;2023-05-07T01:21:03;4.70;;;2.60;;
47625;SDS011;33342;45.574;9.252;2023-05-07T01:23:31;5.57;;;2.95;;
47625;SDS011;33342;45.574;9.252;2023-05-07T01:26:00;5.55;;;3.35;;
47625;SDS011;33342;45.574;9.252;2023-05-07T01:28:29;6.00;;;3.08;;
47625;SDS011;33342;45.574;9.252;2023-05-07T01:31:00;5.97;;;3.00;;
47625;SDS011;33342;45.574;9.252;2023-05-07T01:33:31;4.15;;;2.42;;
47625;SDS011;33342;45.574;9.252;2023-05-07T01:36:01;5.50;;;2.22;;
47625;SDS011;33342;45.574;9.252;2023-05-07T01:38:32;5.35;;;2.22;;
47625;SDS011;33342;45.574;9.252;2023-05-07T01:41:00;4.85;;;2.30;;
47625;SDS011;33342;45.574;9.252;2023-05-07T01:43:28;5.72;;;2.47;;
47625;SDS011;33342;45.574;9.252;2023-05-07T01:45:57;7.38;;;2.30;;
47625;SDS011;33342;45.574;9.252;2023-05-07T01:48:25;5.65;;;2.40;;
47625;SDS011;33342;45.574;9.252;2023-05-07T01:50:52;4.65;;;2.50;;
47625;SDS011;33342;45.574;9.252;2023-05-07T01:53:20;3.55;;;2.17;;
47625;SDS011;33342;45.574;9.252;2023-05-07T01:55:47;4.15;;;2.20;;
47625;SDS011;33342;45.574;9.252;2023-05-07T01:58:15;5.13;;;2.58;;
47625;SDS011;33342;45.574;9.252;2023-05-07T02:00:42;4.50;;;2.30;;
47625;SDS011;33342;45.574;9.252;2023-05-07T02:03:09;6.53;;;2.40;;
47625;SDS011;33342;45.574;9.252;2023-05-07T02:05:46;4.97;;;2.17;;
47625;SDS011;33342;45.574;9.252;2023-05-07T02:08:34;4.22;;;1.80;;
47625;SDS011;33342;45.574;9.252;2023-05-07T02:11:01;5.25;;;1.80;;
47625;SDS011;33342;45.574;9.252;2023-05-07T02:13:30;6.00;;;1.90;;
47625;SDS011;33342;45.574;9.252;2023-05-07T02:15:58;5.53;;;2.10;;
47625;SDS011;33342;45.574;9.252;2023-05-07T02:18:26;4.68;;;1.90;;
47625;SDS011;33342;45.574;9.252;2023-05-07T02:20:53;4.20;;;1.60;;
47625;SDS011;33342;45.574;9.252;2023-05-07T02:23:20;4.93;;;1.40;;
47625;SDS011;33342;45.574;9.252;2023-05-07T02:25:48;4.32;;;1.98;;
47625;SDS011;33342;45.574;9.252;2023-05-07T02:28:15;3.03;;;1.40;;
47625;SDS011;33342;45.574;9.252;2023-05-07T02:30:52;5.63;;;1.80;;
47625;SDS011;33342;45.574;9.252;2023-05-07T02:33:20;3.28;;;1.63;;
47625;SDS011;33342;45.574;9.252;2023-05-07T02:35:47;4.63;;;1.70;;
47625;SDS011;33342;45.574;9.252;2023-05-07T02:38:15;3.80;;;1.48;;
47625;SDS011;33342;45.574;9.252;2023-05-07T02:40:42;4.03;;;1.67;;
47625;SDS011;33342;45.574;9.252;2023-05-07T02:43:10;3.83;;;2.00;;
47625;SDS011;33342;45.574;9.252;2023-05-07T02:45:39;4.95;;;1.60;;
47625;SDS011;33342;45.574;9.252;2023-05-07T02:48:07;4.47;;;1.50;;
47625;SDS011;33342;45.574;9.252;2023-05-07T02:50:34;5.40;;;2.00;;
47625;SDS011;33342;45.574;9.252;2023-05-07T02:53:01;4.15;;;1.90;;
47625;SDS011;33342;45.574;9.252;2023-05-07T02:55:29;3.95;;;1.80;;
47625;SDS011;33342;45.574;9.252;2023-05-07T02:57:56;5.10;;;1.90;;
47625;SDS011;33342;45.574;9.252;2023-05-07T03:00:25;3.78;;;1.60;;
47625;SDS011;33342;45.574;9.252;2023-05-07T03:05:38;4.38;;;1.90;;
47625;SDS011;33342;45.574;9.252;2023-05-07T03:08:05;4.28;;;1.88;;
47625;SDS011;33342;45.574;9.252;2023-05-07T03:10:32;4.22;;;2.00;;
47625;SDS011;33342;45.574;9.252;2023-05-07T03:13:00;2.83;;;1.50;;
47625;SDS011;33342;45.574;9.252;2023-05-07T03:15:28;4.47;;;2.00;;
47625;SDS011;33342;45.574;9.252;2023-05-07T03:17:55;3.40;;;1.85;;
47625;SDS011;33342;45.574;9.252;2023-05-07T03:20:23;4.35;;;2.17;;
47625;SDS011;33342;45.574;9.252;2023-05-07T03:22:50;4.95;;;1.98;;
47625;SDS011;33342;45.574;9.252;2023-05-07T03:25:17;4.88;;;2.10;;
47625;SDS011;33342;45.574;9.252;2023-05-07T03:27:44;6.95;;;2.22;;
47625;SDS011;33342;45.574;9.252;2023-05-07T03:30:11;6.25;;;2.17;;
47625;SDS011;33342;45.574;9.252;2023-05-07T03:32:39;5.68;;;2.10;;
47625;SDS011;33342;45.574;9.252;2023-05-07T03:35:09;5.78;;;2.15;;
47625;SDS011;33342;45.574;9.252;2023-05-07T03:37:37;3.45;;;1.90;;
47625;SDS011;33342;45.574;9.252;2023-05-07T03:40:05;4.53;;;1.85;;
47625;SDS011;33342;45.574;9.252;2023-05-07T03:42:41;3.72;;;1.85;;
47625;SDS011;33342;45.574;9.252;2023-05-07T03:45:09;4.05;;;1.65;;
47625;SDS011;33342;45.574;9.252;2023-05-07T03:47:40;3.33;;;1.50;;
47625;SDS011;33342;45.574;9.252;2023-05-07T03:50:09;4.03;;;1.70;;
47625;SDS011;33342;45.574;9.252;2023-05-07T03:52:37;4.05;;;1.67;;
47625;SDS011;33342;45.574;9.252;2023-05-07T03:55:07;5.03;;;1.88;;
47625;SDS011;33342;45.574;9.252;2023-05-07T03:57:37;4.45;;;2.00;;
47625;SDS011;33342;45.574;9.252;2023-05-07T04:00:04;5.15;;;1.85;;
47625;SDS011;33342;45.574;9.252;2023-05-07T04:02:45;4.05;;;2.10;;
47625;SDS011;33342;45.574;9.252;2023-05-07T04:05:16;5.10;;;1.92;;
47625;SDS011;33342;45.574;9.252;2023-05-07T04:07:45;5.35;;;2.20;;
47625;SDS011;33342;45.574;9.252;2023-05-07T04:10:16;5.60;;;1.95;;
47625;SDS011;33342;45.574;9.252;2023-05-07T04:12:45;6.50;;;2.15;;
47625;SDS011;33342;45.574;9.252;2023-05-07T04:15:17;6.30;;;1.83;;
47625;SDS011;33342;45.574;9.252;2023-05-07T04:17:44;3.80;;;1.70;;
47625;SDS011;33342;45.574;9.252;2023-05-07T04:20:14;3.95;;;1.80;;
47625;SDS011;33342;45.574;9.252;2023-05-07T04:22:44;4.68;;;2.20;;
47625;SDS011;33342;45.574;9.252;2023-05-07T04:25:11;3.35;;;1.90;;
47625;SDS011;33342;45.574;9.252;2023-05-07T04:27:38;5.15;;;1.85;;
47625;SDS011;33342;45.574;9.252;2023-05-07T04:30:06;3.88;;;1.98;;
47625;SDS011;33342;45.574;9.252;2023-05-07T04:32:37;4.68;;;1.85;;
47625;SDS011;33342;45.574;9.252;2023-05-07T04:35:05;4.32;;;2.10;;
47625;SDS011;33342;45.574;9.252;2023-05-07T04:37:34;2.72;;;1.58;;
47625;SDS011;33342;45.574;9.252;2023-05-07T04:40:02;3.67;;;1.77;;
47625;SDS011;33342;45.574;9.252;2023-05-07T04:42:30;3.70;;;1.70;;
47625;SDS011;33342;45.574;9.252;2023-05-07T04:45:00;4.40;;;1.88;;
47625;SDS011;33342;45.574;9.252;2023-05-07T04:47:31;3.08;;;1.60;;
47625;SDS011;33342;45.574;9.252;2023-05-07T04:50:00;4.18;;;1.70;;
47625;SDS011;33342;45.574;9.252;2023-05-07T04:52:27;4.10;;;1.85;;
47625;SDS011;33342;45.574;9.252;2023-05-07T04:54:54;2.45;;;1.30;;
47625;SDS011;33342;45.574;9.252;2023-05-07T04:57:22;3.92;;;1.65;;
47625;SDS011;33342;45.574;9.252;2023-05-07T04:59:49;2.35;;;1.45;;
47625;SDS011;33342;45.574;9.252;2023-05-07T05:02:16;4.80;;;1.90;;
47625;SDS011;33342;45.574;9.252;2023-05-07T05:04:46;2.63;;;1.50;;
47625;SDS011;33342;45.574;9.252;2023-05-07T05:07:14;2.88;;;1.40;;
47625;SDS011;33342;45.574;9.252;2023-05-07T05:09:41;3.15;;;1.45;;
47625;SDS011;33342;45.574;9.252;2023-05-07T05:12:08;2.63;;;1.33;;
47625;SDS011;33342;45.574;9.252;2023-05-07T05:14:36;4.05;;;1.50;;
47625;SDS011;33342;45.574;9.252;2023-05-07T05:17:04;2.50;;;1.30;;
47625;SDS011;33342;45.574;9.252;2023-05-07T05:19:31;4.35;;;1.60;;
47625;SDS011;33342;45.574;9.252;2023-05-07T05:21:59;2.90;;;1.40;;
47625;SDS011;33342;45.574;9.252;2023-05-07T05:24:27;3.30;;;1.58;;
47625;SDS011;33342;45.574;9.252;2023-05-07T05:26:54;5.03;;;1.70;;
47625;SDS011;33342;45.574;9.252;2023-05-07T05:29:22;5.88;;;1.65;;
47625;SDS011;33342;45.574;9.252;2023-05-07T05:31:49;3.80;;;1.58;;
47625;SDS011;33342;45.574;9.252;2023-05-07T05:34:17;4.70;;;1.77;;
47625;SDS011;33342;45.574;9.252;2023-05-07T05:36:46;3.95;;;1.85;;
47625;SDS011;33342;45.574;9.252;2023-05-07T05:39:14;3.42;;;1.55;;
47625;SDS011;33342;45.574;9.252;2023-05-07T05:41:41;3.45;;;1.77;;
47625;SDS011;33342;45.574;9.252;2023-05-07T05:44:08;3.50;;;1.80;;
47625;SDS011;33342;45.574;9.252;2023-05-07T05:46:36;4.90;;;1.80;;
47625;SDS011;33342;45.574;9.252;2023-05-07T05:49:03;4.53;;;2.00;;
47625;SDS011;33342;45.574;9.252;2023-05-07T05:51:30;4.03;;;2.22;;
47625;SDS011;33342;45.574;9.252;2023-05-07T05:53:58;4.25;;;1.92;;
47625;SDS011;33342;45.574;9.252;2023-05-07T05:56:25;4.60;;;2.05;;
47625;SDS011;33342;45.574;9.252;2023-05-07T05:58:53;5.32;;;2.00;;
47625;SDS011;33342;45.574;9.252;2023-05-07T06:01:20;4.30;;;2.00;;
47625;SDS011;33342;45.574;9.252;2023-05-07T06:03:49;6.68;;;1.88;;
47625;SDS011;33342;45.574;9.252;2023-05-07T06:06:17;3.70;;;1.95;;
47625;SDS011;33342;45.574;9.252;2023-05-07T06:08:45;4.70;;;2.20;;
47625;SDS011;33342;45.574;9.252;2023-05-07T06:11:16;4.32;;;2.00;;
47625;SDS011;33342;45.574;9.252;2023-05-07T06:13:45;4.38;;;2.03;;
47625;SDS011;33342;45.574;9.252;2023-05-07T06:16:12;3.88;;;2.20;;
47625;SDS011;33342;45.574;9.252;2023-05-07T06:18:40;5.70;;;2.20;;
47625;SDS011;33342;45.574;9.252;2023-05-07T06:21:07;6.82;;;2.30;;
47625;SDS011;33342;45.574;9.252;2023-05-07T06:23:34;4.82;;;2.03;;
47625;SDS011;33342;45.574;9.252;2023-05-07T06:26:03;6.53;;;3.00;;
47625;SDS011;33342;45.574;9.252;2023-05-07T06:28:36;4.40;;;2.10;;
47625;SDS011;33342;45.574;9.252;2023-05-07T06:31:17;4.50;;;2.28;;
47625;SDS011;33342;45.574;9.252;2023-05-07T06:34:00;4.10;;;2.15;;
47625;SDS011;33342;45.574;9.252;2023-05-07T06:36:33;4.32;;;2.30;;
47625;SDS011;33342;45.574;9.252;2023-05-07T06:39:09;4.78;;;2.20;;
47625;SDS011;33342;45.574;9.252;2023-05-07T06:41:36;4.43;;;2.10;;
47625;SDS011;33342;45.574;9.252;2023-05-07T06:44:09;6.03;;;2.38;;
47625;SDS011;33342;45.574;9.252;2023-05-07T06:46:40;4.38;;;2.20;;
47625;SDS011;33342;45.574;9.252;2023-05-07T06:49:08;5.25;;;2.53;;
47625;SDS011;33342;45.574;9.252;2023-05-07T06:51:35;5.55;;;2.80;;
47625;SDS011;33342;45.574;9.252;2023-05-07T06:54:03;5.18;;;2.55;;
47625;SDS011;33342;45.574;9.252;2023-05-07T06:56:32;5.57;;;2.92;;
47625;SDS011;33342;45.574;9.252;2023-05-07T06:59:02;5.22;;;2.80;;
47625;SDS011;33342;45.574;9.252;2023-05-07T07:01:33;5.30;;;3.13;;
47625;SDS011;33342;45.574;9.252;2023-05-07T07:04:02;8.82;;;3.33;;
47625;SDS011;33342;45.574;9.252;2023-05-07T07:06:30;6.63;;;3.00;;
47625;SDS011;33342;45.574;9.252;2023-05-07T07:08:59;7.43;;;2.97;;
47625;SDS011;33342;45.574;9.252;2023-05-07T07:11:27;6.22;;;3.42;;
47625;SDS011;33342;45.574;9.252;2023-05-07T07:13:55;6.68;;;3.63;;
47625;SDS011;33342;45.574;9.252;2023-05-07T07:16:22;6.05;;;3.50;;
47625;SDS011;33342;45.574;9.252;2023-05-07T07:18:50;4.82;;;2.95;;
47625;SDS011;33342;45.574;9.252;2023-05-07T07:21:19;7.68;;;3.80;;
47625;SDS011;33342;45.574;9.252;2023-05-07T07:23:46;5.60;;;3.20;;
47625;SDS011;33342;45.574;9.252;2023-05-07T07:26:14;5.28;;;3.20;;
47625;SDS011;33342;45.574;9.252;2023-05-07T07:28:42;5.30;;;2.80;;
47625;SDS011;33342;45.574;9.252;2023-05-07T07:31:13;5.97;;;3.10;;
47625;SDS011;33342;45.574;9.252;2023-05-07T07:33:41;5.68;;;3.42;;
47625;SDS011;33342;45.574;9.252;2023-05-07T07:36:09;6.13;;;2.97;;
47625;SDS011;33342;45.574;9.252;2023-05-07T07:38:37;7.45;;;3.20;;
47625;SDS011;33342;45.574;9.252;2023-05-07T07:41:04;5.72;;;3.20;;
47625;SDS011;33342;45.574;9.252;2023-05-07T07:43:31;6.70;;;3.10;;
47625;SDS011;33342;45.574;9.252;2023-05-07T07:45:58;6.60;;;3.78;;
47625;SDS011;33342;45.574;9.252;2023-05-07T07:48:26;5.78;;;3.15;;
47625;SDS011;33342;45.574;9.252;2023-05-07T07:50:54;5.20;;;3.05;;
47625;SDS011;33342;45.574;9.252;2023-05-07T07:53:21;6.75;;;2.92;;
47625;SDS011;33342;45.574;9.252;2023-05-07T07:55:49;5.88;;;2.97;;
47625;SDS011;33342;45.574;9.252;2023-05-07T07:58:19;5.57;;;3.20;;
47625;SDS011;33342;45.574;9.252;2023-05-07T08:00:46;7.47;;;3.33;;
47625;SDS011;33342;45.574;9.252;2023-05-07T08:03:14;5.07;;;2.72;;
47625;SDS011;33342;45.574;9.252;2023-05-07T08:05:47;5.47;;;3.40;;
47625;SDS011;33342;45.574;9.252;2023-05-07T08:08:16;5.57;;;2.88;;
47625;SDS011;33342;45.574;9.252;2023-05-07T08:10:43;5.68;;;3.35;;
47625;SDS011;33342;45.574;9.252;2023-05-07T08:13:18;4.60;;;2.80;;
47625;SDS011;33342;45.574;9.252;2023-05-07T08:15:46;5.97;;;2.75;;
47625;SDS011;33342;45.574;9.252;2023-05-07T08:18:13;5.45;;;2.80;;
47625;SDS011;33342;45.574;9.252;2023-05-07T08:20:42;7.68;;;3.10;;
47625;SDS011;33342;45.574;9.252;2023-05-07T08:23:14;6.45;;;3.97;;
47625;SDS011;33342;45.574;9.252;2023-05-07T08:25:42;6.97;;;2.97;;
47625;SDS011;33342;45.574;9.252;2023-05-07T08:28:10;5.18;;;2.70;;
47625;SDS011;33342;45.574;9.252;2023-05-07T08:30:38;5.03;;;2.30;;
47625;SDS011;33342;45.574;9.252;2023-05-07T08:33:05;3.22;;;1.70;;
47625;SDS011;33342;45.574;9.252;2023-05-07T08:35:34;4.97;;;2.70;;
47625;SDS011;33342;45.574;9.252;2023-05-07T08:38:02;4.07;;;2.00;;
47625;SDS011;33342;45.574;9.252;2023-05-07T08:40:29;4.97;;;2.50;;
47625;SDS011;33342;45.574;9.252;2023-05-07T08:45:33;6.88;;;3.13;;
47625;SDS011;33342;45.574;9.252;2023-05-07T08:48:02;5.07;;;2.60;;
47625;SDS011;33342;45.574;9.252;2023-05-07T08:50:35;5.28;;;2.92;;
47625;SDS011;33342;45.574;9.252;2023-05-07T08:53:04;4.80;;;2.78;;
47625;SDS011;33342;45.574;9.252;2023-05-07T08:55:31;4.75;;;2.40;;
47625;SDS011;33342;45.574;9.252;2023-05-07T08:58:00;5.30;;;2.38;;
47625;SDS011;33342;45.574;9.252;2023-05-07T09:00:31;3.78;;;1.98;;
47625;SDS011;33342;45.574;9.252;2023-05-07T09:03:00;4.70;;;2.38;;
47625;SDS011;33342;45.574;9.252;2023-05-07T09:05:28;5.43;;;2.70;;
47625;SDS011;33342;45.574;9.252;2023-05-07T09:07:55;5.45;;;2.90;;
47625;SDS011;33342;45.574;9.252;2023-05-07T09:10:26;5.30;;;2.38;;
47625;SDS011;33342;45.574;9.252;2023-05-07T09:12:53;4.88;;;2.22;;
47625;SDS011;33342;45.574;9.252;2023-05-07T09:15:20;5.85;;;2.67;;
47625;SDS011;33342;45.574;9.252;2023-05-07T09:17:48;4.75;;;2.50;;
47625;SDS011;33342;45.574;9.252;2023-05-07T09:20:15;5.28;;;2.80;;
47625;SDS011;33342;45.574;9.252;2023-05-07T09:22:43;4.82;;;2.28;;
47625;SDS011;33342;45.574;9.252;2023-05-07T09:25:14;5.15;;;3.08;;
47625;SDS011;33342;45.574;9.252;2023-05-07T09:27:41;6.20;;;2.80;;
47625;SDS011;33342;45.574;9.252;2023-05-07T09:30:09;6.03;;;2.85;;
47625;SDS011;33342;45.574;9.252;2023-05-07T09:32:36;7.97;;;3.97;;
47625;SDS011;33342;45.574;9.252;2023-05-07T09:35:16;8.02;;;3.47;;
47625;SDS011;33342;45.574;9.252;2023-05-07T09:37:49;6.00;;;3.30;;
47625;SDS011;33342;45.574;9.252;2023-05-07T09:40:19;5.55;;;3.05;;
47625;SDS011;33342;45.574;9.252;2023-05-07T09:42:49;5.30;;;3.03;;
47625;SDS011;33342;45.574;9.252;2023-05-07T09:45:26;5.55;;;3.03;;
47625;SDS011;33342;45.574;9.252;2023-05-07T09:47:57;3.95;;;2.30;;
47625;SDS011;33342;45.574;9.252;2023-05-07T09:50:30;5.65;;;2.30;;
47625;SDS011;33342;45.574;9.252;2023-05-07T09:53:03;4.95;;;2.45;;
47625;SDS011;33342;45.574;9.252;2023-05-07T09:55:31;5.75;;;2.80;;
47625;SDS011;33342;45.574;9.252;2023-05-07T09:57:58;4.80;;;2.70;;
47625;SDS011;33342;45.574;9.252;2023-05-07T10:00:27;6.53;;;3.00;;
47625;SDS011;33342;45.574;9.252;2023-05-07T10:03:03;4.85;;;2.60;;
47625;SDS011;33342;45.574;9.252;2023-05-07T10:05:40;6.35;;;2.80;;
47625;SDS011;33342;45.574;9.252;2023-05-07T10:08:12;5.03;;;3.20;;
47625;SDS011;33342;45.574;9.252;2023-05-07T10:10:40;7.10;;;3.47;;
47625;SDS011;33342;45.574;9.252;2023-05-07T10:13:10;5.32;;;3.22;;
47625;SDS011;33342;45.574;9.252;2023-05-07T10:15:43;5.68;;;3.25;;
47625;SDS011;33342;45.574;9.252;2023-05-07T10:18:11;7.05;;;3.70;;
47625;SDS011;33342;45.574;9.252;2023-05-07T10:20:39;7.65;;;3.53;;
47625;SDS011;33342;45.574;9.252;2023-05-07T10:23:12;6.85;;;4.70;;
47625;SDS011;33342;45.574;9.252;2023-05-07T10:25:44;7.68;;;5.05;;
47625;SDS011;33342;45.574;9.252;2023-05-07T10:28:21;7.50;;;4.68;;
47625;SDS011;33342;45.574;9.252;2023-05-07T10:33:37;7.43;;;4.60;;
47625;SDS011;33342;45.574;9.252;2023-05-07T10:36:05;7.15;;;4.57;;
47625;SDS011;33342;45.574;9.252;2023-05-07T10:38:34;6.22;;;4.60;;
47625;SDS011;33342;45.574;9.252;2023-05-07T10:41:01;6.53;;;5.00;;
47625;SDS011;33342;45.574;9.252;2023-05-07T10:46:16;7.15;;;5.05;;
47625;SDS011;33342;45.574;9.252;2023-05-07T10:51:34;7.90;;;5.25;;
47625;SDS011;33342;45.574;9.252;2023-05-07T10:56:52;6.25;;;3.80;;
47625;SDS011;33342;45.574;9.252;2023-05-07T10:59:30;7.72;;;4.30;;
47625;SDS011;33342;45.574;9.252;2023-05-07T11:02:07;6.18;;;4.22;;
47625;SDS011;33342;45.574;9.252;2023-05-07T11:04:57;7.38;;;3.90;;
47625;SDS011;33342;45.574;9.252;2023-05-07T11:07:56;6.63;;;4.57;;
47625;SDS011;33342;45.574;9.252;2023-05-07T11:10:53;6.53;;;4.72;;
47625;SDS011;33342;45.574;9.252;2023-05-07T11:13:41;6.10;;;4.38;;
47625;SDS011;33342;45.574;9.252;2023-05-07T11:16:22;6.78;;;4.68;;
47625;SDS011;33342;45.574;9.252;2023-05-07T11:19:03;14.13;;;4.38;;
47625;SDS011;33342;45.574;9.252;2023-05-07T11:21:38;5.88;;;4.10;;
47625;SDS011;33342;45.574;9.252;2023-05-07T11:24:38;8.68;;;6.10;;
47625;SDS011;33342;45.574;9.252;2023-05-07T11:27:12;5.63;;;4.10;;
47625;SDS011;33342;45.574;9.252;2023-05-07T11:29:41;6.35;;;4.22;;
47625;SDS011;33342;45.574;9.252;2023-05-07T11:32:22;7.15;;;4.45;;
47625;SDS011;33342;45.574;9.252;2023-05-07T11:34:53;7.40;;;4.85;;
47625;SDS011;33342;45.574;9.252;2023-05-07T11:37:24;7.68;;;5.28;;
47625;SDS011;33342;45.574;9.252;2023-05-07T11:40:07;6.40;;;5.00;;
47625;SDS011;33342;45.574;9.252;2023-05-07T11:42:38;7.72;;;5.75;;
47625;SDS011;33342;45.574;9.252;2023-05-07T11:45:08;7.28;;;5.00;;
47625;SDS011;33342;45.574;9.252;2023-05-07T11:47:37;6.82;;;4.93;;
47625;SDS011;33342;45.574;9.252;2023-05-07T11:50:10;6.63;;;4.18;;
47625;SDS011;33342;45.574;9.252;2023-05-07T11:52:38;6.50;;;4.38;;
47625;SDS011;33342;45.574;9.252;2023-05-07T11:55:07;7.22;;;4.55;;
47625;SDS011;33342;45.574;9.252;2023-05-07T11:57:35;6.75;;;4.65;;
47625;SDS011;33342;45.574;9.252;2023-05-07T12:00:04;7.05;;;4.40;;
47625;SDS011;33342;45.574;9.252;2023-05-07T12:02:39;6.55;;;4.07;;
47625;SDS011;33342;45.574;9.252;2023-05-07T12:05:08;6.93;;;5.10;;
47625;SDS011;33342;45.574;9.252;2023-05-07T12:07:37;8.23;;;4.80;;
47625;SDS011;33342;45.574;9.252;2023-05-07T12:10:05;7.20;;;4.38;;
47625;SDS011;33342;45.574;9.252;2023-05-07T12:12:39;6.57;;;4.50;;
47625;SDS011;33342;45.574;9.252;2023-05-07T12:17:37;6.78;;;4.00;;
47625;SDS011;33342;45.574;9.252;2023-05-07T12:20:04;7.15;;;4.18;;
47625;SDS011;33342;45.574;9.252;2023-05-07T12:22:32;6.47;;;3.95;;
47625;SDS011;33342;45.574;9.252;2023-05-07T12:24:59;6.85;;;3.70;;
47625;SDS011;33342;45.574;9.252;2023-05-07T12:27:26;5.20;;;3.60;;
47625;SDS011;33342;45.574;9.252;2023-05-07T12:29:53;6.10;;;3.50;;
47625;SDS011;33342;45.574;9.252;2023-05-07T12:32:21;5.30;;;3.53;;
47625;SDS011;33342;45.574;9.252;2023-05-07T12:34:51;4.80;;;2.95;;
47625;SDS011;33342;45.574;9.252;2023-05-07T12:37:23;7.45;;;3.67;;
47625;SDS011;33342;45.574;9.252;2023-05-07T12:40:09;4.63;;;2.80;;
47625;SDS011;33342;45.574;9.252;2023-05-07T12:42:38;5.18;;;2.85;;
47625;SDS011;33342;45.574;9.252;2023-05-07T12:45:10;4.68;;;2.50;;
47625;SDS011;33342;45.574;9.252;2023-05-07T12:47:43;5.15;;;2.88;;
47625;SDS011;33342;45.574;9.252;2023-05-07T12:50:13;6.07;;;3.85;;
47625;SDS011;33342;45.574;9.252;2023-05-07T12:52:43;5.90;;;3.50;;
47625;SDS011;33342;45.574;9.252;2023-05-07T12:55:16;4.63;;;3.00;;
47625;SDS011;33342;45.574;9.252;2023-05-07T12:57:45;4.72;;;3.10;;
47625;SDS011;33342;45.574;9.252;2023-05-07T13:00:15;5.53;;;2.92;;
47625;SDS011;33342;45.574;9.252;2023-05-07T13:02:43;5.90;;;3.33;;
47625;SDS011;33342;45.574;9.252;2023-05-07T13:05:11;5.28;;;3.40;;
47625;SDS011;33342;45.574;9.252;2023-05-07T13:07:39;6.20;;;3.38;;
47625;SDS011;33342;45.574;9.252;2023-05-07T13:10:07;5.15;;;3.13;;
47625;SDS011;33342;45.574;9.252;2023-05-07T13:12:34;5.70;;;3.58;;
47625;SDS011;33342;45.574;9.252;2023-05-07T13:15:02;5.55;;;3.80;;
47625;SDS011;33342;45.574;9.252;2023-05-07T13:17:29;6.05;;;3.30;;
47625;SDS011;33342;45.574;9.252;2023-05-07T13:19:58;6.00;;;3.40;;
47625;SDS011;33342;45.574;9.252;2023-05-07T13:22:25;6.70;;;4.60;;
47625;SDS011;33342;45.574;9.252;2023-05-07T13:24:52;7.05;;;3.67;;
47625;SDS011;33342;45.574;9.252;2023-05-07T13:27:18;5.50;;;3.38;;
47625;SDS011;33342;45.574;9.252;2023-05-07T13:29:46;5.35;;;3.10;;
47625;SDS011;33342;45.574;9.252;2023-05-07T13:32:13;5.97;;;2.85;;
47625;SDS011;33342;45.574;9.252;2023-05-07T13:34:41;5.30;;;2.83;;
47625;SDS011;33342;45.574;9.252;2023-05-07T13:37:08;5.03;;;3.10;;
47625;SDS011;33342;45.574;9.252;2023-05-07T13:39:37;4.80;;;2.42;;
47625;SDS011;33342;45.574;9.252;2023-05-07T13:42:04;4.90;;;2.83;;
47625;SDS011;33342;45.574;9.252;2023-05-07T13:44:31;5.95;;;2.60;;
47625;SDS011;33342;45.574;9.252;2023-05-07T13:46:58;5.40;;;2.58;;
47625;SDS011;33342;45.574;9.252;2023-05-07T13:49:25;7.88;;;6.30;;
47625;SDS011;33342;45.574;9.252;2023-05-07T13:51:52;15.70;;;12.52;;
47625;SDS011;33342;45.574;9.252;2023-05-07T13:54:19;4.30;;;2.78;;
47625;SDS011;33342;45.574;9.252;2023-05-07T13:56:46;5.57;;;2.72;;
47625;SDS011;33342;45.574;9.252;2023-05-07T13:59:13;4.55;;;2.58;;
47625;SDS011;33342;45.574;9.252;2023-05-07T14:01:40;4.80;;;2.63;;
47625;SDS011;33342;45.574;9.252;2023-05-07T14:04:08;4.28;;;2.58;;
47625;SDS011;33342;45.574;9.252;2023-05-07T14:06:35;5.45;;;2.83;;
47625;SDS011;33342;45.574;9.252;2023-05-07T14:09:02;5.40;;;2.92;;
47625;SDS011;33342;45.574;9.252;2023-05-07T14:11:29;6.03;;;2.63;;
47625;SDS011;33342;45.574;9.252;2023-05-07T14:13:58;5.40;;;2.50;;
47625;SDS011;33342;45.574;9.252;2023-05-07T14:16:25;5.50;;;2.70;;
47625;SDS011;33342;45.574;9.252;2023-05-07T14:18:52;4.68;;;2.75;;
47625;SDS011;33342;45.574;9.252;2023-05-07T14:21:23;4.40;;;2.30;;
47625;SDS011;33342;45.574;9.252;2023-05-07T14:23:51;5.53;;;3.05;;
47625;SDS011;33342;45.574;9.252;2023-05-07T14:26:18;4.20;;;2.83;;
47625;SDS011;33342;45.574;9.252;2023-05-07T14:28:45;4.90;;;2.97;;
47625;SDS011;33342;45.574;9.252;2023-05-07T14:31:12;4.75;;;2.90;;
47625;SDS011;33342;45.574;9.252;2023-05-07T14:33:39;4.50;;;3.05;;
47625;SDS011;33342;45.574;9.252;2023-05-07T14:36:07;4.93;;;2.75;;
47625;SDS011;33342;45.574;9.252;2023-05-07T14:38:34;4.70;;;2.80;;
47625;SDS011;33342;45.574;9.252;2023-05-07T14:41:02;7.57;;;2.80;;
47625;SDS011;33342;45.574;9.252;2023-05-07T14:43:29;5.25;;;2.65;;
47625;SDS011;33342;45.574;9.252;2023-05-07T14:45:56;4.43;;;2.55;;
47625;SDS011;33342;45.574;9.252;2023-05-07T14:48:23;5.50;;;2.58;;
47625;SDS011;33342;45.574;9.252;2023-05-07T14:50:50;5.43;;;2.95;;
47625;SDS011;33342;45.574;9.252;2023-05-07T14:53:17;4.53;;;2.88;;
47625;SDS011;33342;45.574;9.252;2023-05-07T14:55:44;4.97;;;2.90;;
47625;SDS011;33342;45.574;9.252;2023-05-07T14:58:11;4.88;;;2.72;;
47625;SDS011;33342;45.574;9.252;2023-05-07T15:00:38;5.75;;;3.25;;
47625;SDS011;33342;45.574;9.252;2023-05-07T15:03:06;6.10;;;2.83;;
47625;SDS011;33342;45.574;9.252;2023-05-07T15:05:35;5.25;;;2.63;;
47625;SDS011;33342;45.574;9.252;2023-05-07T15:08:02;6.07;;;2.40;;
47625;SDS011;33342;45.574;9.252;2023-05-07T15:10:29;5.60;;;2.75;;
47625;SDS011;33342;45.574;9.252;2023-05-07T15:12:56;4.90;;;2.60;;
47625;SDS011;33342;45.574;9.252;2023-05-07T15:15:23;4.40;;;2.60;;
47625;SDS011;33342;45.574;9.252;2023-05-07T15:17:52;4.87;;;2.63;;